Time;durP1;ratioP1;P1;durP2;ratioP2;P2;SDS_P1;SDS_P2;PMS_P1;PMS_P2;Temp;Humidity;BMP_temperature;BMP_pressure;BME280_temperature;BME280_humidity;BME280_pressure;Samples;Min_cycle;Max_cycle;Signal;HPM_P1;HPM_P2
2023/03/28 00:00:20;;;;;;;7.78;1.92;;;3.70;99.90;;;;;;4188055;28;20037;-86
2023/03/28 00:02:20;;;;;;;13.20;1.63;;;3.00;99.90;;;;;;4217178;28;20036;-85
2023/03/28 00:04:21;;;;;;;19.08;2.38;;;3.60;99.90;;;;;;4205812;28;20037;-86
2023/03/28 00:06:23;;;;;;;8.82;1.58;;;4.00;99.90;;;;;;4219541;28;20462;-85
2023/03/28 00:08:29;;;;;;;12.45;1.10;;;3.90;99.90;;;;;;4216773;28;20047;-85
2023/03/28 00:10:30;;;;;;;15.65;1.40;;;2.70;99.90;;;;;;4214928;28;20123;-85
2023/03/28 00:12:31;;;;;;;12.48;1.45;;;3.00;99.90;;;;;;4219409;28;20381;-85
2023/03/28 00:14:34;;;;;;;7.45;1.23;;;2.70;99.90;;;;;;4234426;27;20040;-85
2023/03/28 00:16:40;;;;;;;13.75;1.17;;;2.70;99.90;;;;;;4207623;28;20056;-86
2023/03/28 00:18:41;;;;;;;12.57;2.13;;;2.60;99.90;;;;;;4217437;28;20040;-84
2023/03/28 00:20:42;;;;;;;6.72;1.30;;;2.60;99.90;;;;;;4228942;27;20036;-84
2023/03/28 00:22:43;;;;;;;3.08;1.25;;;3.00;99.90;;;;;;4204152;28;20193;-84
2023/03/28 00:24:46;;;;;;;10.95;1.25;;;2.90;99.90;;;;;;4235651;27;20057;-84
2023/03/28 00:26:59;;;;;;;9.73;1.77;;;2.60;99.90;;;;;;4213406;28;20082;-84
2023/03/28 00:29:01;;;;;;;7.85;1.35;;;2.70;99.90;;;;;;4210355;28;20051;-85
2023/03/28 00:31:05;;;;;;;6.28;1.38;;;3.20;99.90;;;;;;4191853;28;20080;-84
2023/03/28 00:33:06;;;;;;;8.95;1.10;;;2.20;99.90;;;;;;4212140;28;20051;-85
2023/03/28 00:35:08;;;;;;;11.93;1.50;;;2.60;99.90;;;;;;4228465;27;20091;-85
2023/03/28 00:37:09;;;;;;;10.68;1.90;;;2.60;99.90;;;;;;4212560;28;20048;-85
2023/03/28 00:39:10;;;;;;;9.15;0.95;;;2.60;99.90;;;;;;4215839;28;20103;-85
2023/03/28 00:41:14;;;;;;;8.88;2.65;;;3.80;99.90;;;;;;4201328;28;20071;-85
2023/03/28 00:43:37;;;;;;;7.15;1.08;;;3.70;99.90;;;;;;4192624;28;20071;-84
2023/03/28 00:45:40;;;;;;;6.95;1.00;;;2.50;99.90;;;;;;4205455;28;20060;-85
2023/03/28 00:48:04;;;;;;;9.00;1.65;;;2.50;99.90;;;;;;4218140;28;20060;-84
2023/03/28 00:50:13;;;;;;;7.80;1.10;;;2.50;99.90;;;;;;4229083;28;20056;-84
2023/03/28 00:52:16;;;;;;;10.70;1.48;;;2.40;99.90;;;;;;4209820;28;20060;-84
2023/03/28 00:54:19;;;;;;;8.13;1.23;;;3.50;99.90;;;;;;4241679;27;20039;-85
2023/03/28 00:56:22;;;;;;;11.13;1.73;;;2.40;99.90;;;;;;4243344;27;20043;-84
2023/03/28 00:58:28;;;;;;;8.25;1.30;;;2.50;99.90;;;;;;4200287;28;20060;-84
2023/03/28 01:00:29;;;;;;;7.50;1.35;;;2.40;99.90;;;;;;4215140;28;20515;-84
2023/03/28 01:02:30;;;;;;;12.73;1.15;;;2.10;99.90;;;;;;4204085;28;20512;-84
2023/03/28 01:04:38;;;;;;;8.73;1.55;;;2.40;99.90;;;;;;4224776;28;20036;-84
2023/03/28 01:06:45;;;;;;;9.45;2.22;;;2.90;99.90;;;;;;4215127;28;20039;-84
2023/03/28 01:08:47;;;;;;;11.20;1.95;;;2.10;99.90;;;;;;4241419;27;20395;-84
2023/03/28 01:10:48;;;;;;;9.48;1.17;;;2.30;99.90;;;;;;4219833;28;20079;-84
2023/03/28 01:12:51;;;;;;;5.93;1.67;;;3.30;99.90;;;;;;4179542;28;20064;-84
2023/03/28 01:14:54;;;;;;;4.63;1.65;;;2.30;99.90;;;;;;4195242;28;20052;-84
2023/03/28 01:16:56;;;;;;;7.55;1.10;;;3.20;99.90;;;;;;4198791;28;20117;-84
2023/03/28 01:19:01;;;;;;;11.32;1.65;;;3.30;99.90;;;;;;4194005;28;20074;-84
2023/03/28 01:21:05;;;;;;;3.90;0.90;;;2.30;99.90;;;;;;4195235;28;20091;-84
2023/03/28 01:23:16;;;;;;;7.80;1.33;;;2.80;99.90;;;;;;4194540;28;20049;-84
2023/03/28 01:25:22;;;;;;;5.53;1.08;;;3.40;99.90;;;;;;4196452;28;20040;-84
2023/03/28 01:28:00;;;;;;;14.82;1.80;;;1.50;99.90;;;;;;4169986;28;20040;-85
2023/03/28 01:30:19;;;;;;;11.48;2.45;;;2.30;99.90;;;;;;4187565;28;20041;-84
2023/03/28 01:32:44;;;;;;;4.13;1.40;;;2.20;99.90;;;;;;4201477;28;20044;-84
2023/03/28 01:35:04;;;;;;;8.43;1.23;;;2.30;99.90;;;;;;4174693;28;20045;-84
2023/03/28 01:37:34;;;;;;;8.00;1.50;;;2.20;99.90;;;;;;4186433;28;20041;-84
2023/03/28 01:40:10;;;;;;;17.85;1.50;;;2.20;99.90;;;;;;4201095;28;20079;-84
2023/03/28 01:42:28;;;;;;;7.13;1.50;;;2.20;99.90;;;;;;4191044;28;20098;-85
2023/03/28 01:44:41;;;;;;;8.05;1.10;;;2.00;99.90;;;;;;4194876;28;20456;-84
2023/03/28 01:46:44;;;;;;;7.53;1.17;;;2.20;99.90;;;;;;4199455;28;20075;-84
2023/03/28 01:49:32;;;;;;;8.38;1.33;;;3.40;99.90;;;;;;4200333;28;20460;-85
2023/03/28 01:51:54;;;;;;;7.10;1.92;;;2.20;99.90;;;;;;4197725;28;20068;-84
2023/03/28 01:54:13;;;;;;;7.93;1.23;;;2.10;99.90;;;;;;4186168;28;20057;-84
2023/03/28 01:56:41;;;;;;;;;;;2.10;99.90;;;;;;4184222;28;20041;-84
2023/03/28 01:59:06;;;;;;;6.10;1.00;;;2.10;99.90;;;;;;4175477;28;19931;-85
2023/03/28 02:01:18;;;;;;;9.68;0.88;;;2.10;99.90;;;;;;4183600;28;20524;-85
2023/03/28 02:03:28;;;;;;;8.50;0.85;;;2.90;99.90;;;;;;4201643;28;20131;-85
2023/03/28 02:05:32;;;;;;;11.98;2.72;;;2.90;99.90;;;;;;4183942;28;20781;-84
2023/03/28 02:07:33;;;;;;;8.57;1.20;;;3.50;99.90;;;;;;4181335;28;20064;-85
2023/03/28 02:09:39;;;;;;;15.35;2.65;;;3.20;99.90;;;;;;4170897;28;20061;-84
2023/03/28 02:11:42;;;;;;;6.80;0.82;;;2.10;99.90;;;;;;4184446;28;20053;-84
2023/03/28 02:13:57;;;;;;;12.85;1.83;;;2.10;99.90;;;;;;4221587;28;20048;-84
2023/03/28 02:16:01;;;;;;;7.72;1.30;;;3.50;99.90;;;;;;4201442;28;20131;-84
2023/03/28 02:18:11;;;;;;;10.88;1.35;;;2.20;99.90;;;;;;4236309;27;20063;-84
2023/03/28 02:20:18;;;;;;;18.27;2.33;;;2.00;99.90;;;;;;4219998;28;20434;-84
2023/03/28 02:22:36;;;;;;;4.68;2.22;;;3.30;99.90;;;;;;4233335;28;20043;-83
2023/03/28 02:24:38;;;;;;;30.20;2.50;;;2.20;99.90;;;;;;4230770;28;20035;-85
2023/03/28 02:26:40;;;;;;;4.85;0.75;;;2.20;99.90;;;;;;4203412;28;20485;-85
2023/03/28 02:28:45;;;;;;;14.35;2.35;;;2.20;99.90;;;;;;4226826;28;20419;-85
2023/03/28 02:30:45;;;;;;;6.55;1.05;;;2.10;99.90;;;;;;4234273;28;20051;-84
2023/03/28 02:32:51;;;;;;;7.72;1.30;;;3.30;99.90;;;;;;4236083;28;20036;-85
2023/03/28 02:34:54;;;;;;;7.03;1.63;;;3.10;99.90;;;;;;4246552;27;20027;-85
2023/03/28 02:37:18;;;;;;;4.80;0.55;;;3.40;99.90;;;;;;4265024;28;20034;-84
2023/03/28 02:39:54;;;;;;;14.13;1.17;;;1.90;99.90;;;;;;4204174;28;20037;-85
2023/03/28 02:42:09;;;;;;;4.40;1.25;;;1.90;99.90;;;;;;4225624;28;20043;-84
2023/03/28 02:44:23;;;;;;;10.18;0.90;;;1.80;99.90;;;;;;4230763;28;20492;-84
2023/03/28 02:46:36;;;;;;;7.25;1.30;;;1.70;99.90;;;;;;4192491;28;20041;-84
2023/03/28 02:48:51;;;;;;;3.70;1.05;;;1.70;99.90;;;;;;4235208;28;20044;-85
2023/03/28 02:51:07;;;;;;;7.57;2.05;;;2.50;99.90;;;;;;4228217;28;20074;-84
2023/03/28 02:53:13;;;;;;;13.07;2.20;;;2.50;99.90;;;;;;4206061;28;20048;-84
2023/03/28 02:55:37;;;;;;;14.32;1.13;;;1.70;99.90;;;;;;4225517;28;20389;-84
2023/03/28 02:57:44;;;;;;;6.45;1.30;;;;;;;;;;4220634;28;20094;-84
2023/03/28 02:59:54;;;;;;;7.72;1.60;;;1.70;99.90;;;;;;4208882;28;20051;-85
2023/03/28 03:01:55;;;;;;;7.72;2.38;;;;;;;;;;4221194;28;20051;-85
2023/03/28 03:03:57;;;;;;;16.38;1.40;;;;;;;;;;4218514;28;20044;-84
2023/03/28 03:06:00;;;;;;;3.03;0.77;;;;;;;;;;4204206;28;20381;-85
2023/03/28 03:08:01;;;;;;;6.97;0.90;;;2.30;99.90;;;;;;4203395;28;20101;-85
2023/03/28 03:10:05;;;;;;;14.10;1.35;;;1.60;99.90;;;;;;4205206;28;20095;-85
2023/03/28 03:12:06;;;;;;;7.82;1.92;;;1.60;99.90;;;;;;4224120;27;20039;-84
2023/03/28 03:14:08;;;;;;;4.65;1.23;;;1.60;99.90;;;;;;4177859;28;20049;-85
2023/03/28 03:16:12;;;;;;;7.68;0.90;;;2.70;99.90;;;;;;4193745;28;20509;-84
2023/03/28 03:18:13;;;;;;;5.38;0.85;;;1.60;99.90;;;;;;4190641;28;20079;-85
2023/03/28 03:20:15;;;;;;;9.02;2.30;;;1.10;99.90;;;;;;4198820;28;20052;-85
2023/03/28 03:22:17;;;;;;;10.88;1.20;;;1.70;99.90;;;;;;4201424;28;20401;-85
2023/03/28 03:24:18;;;;;;;7.30;1.60;;;1.70;99.90;;;;;;4191135;28;20037;-85
2023/03/28 03:26:25;;;;;;;16.83;2.03;;;1.70;99.90;;;;;;4171448;28;20059;-85
2023/03/28 03:28:28;;;;;;;10.40;1.20;;;1.60;99.90;;;;;;4195151;28;20041;-85
2023/03/28 03:30:29;;;;;;;7.38;1.20;;;2.10;99.90;;;;;;4192408;28;20041;-85
2023/03/28 03:32:30;;;;;;;8.27;0.88;;;2.90;99.90;;;;;;4206937;28;20051;-84
2023/03/28 03:34:32;;;;;;;8.80;1.20;;;3.00;99.90;;;;;;4196422;28;20087;-85
2023/03/28 03:36:34;;;;;;;6.38;0.88;;;2.30;99.90;;;;;;4179802;28;20044;-84
2023/03/28 03:38:36;;;;;;;11.18;1.13;;;3.00;99.90;;;;;;4200108;28;20098;-84
2023/03/28 03:40:37;;;;;;;8.88;1.20;;;1.50;99.90;;;;;;4194613;28;20044;-84
2023/03/28 03:42:38;;;;;;;5.10;1.45;;;1.50;99.90;;;;;;4200071;28;20675;-84
2023/03/28 03:44:41;;;;;;;6.45;1.25;;;2.40;99.90;;;;;;4191898;28;20045;-84
2023/03/28 03:46:43;;;;;;;9.85;1.58;;;1.60;99.90;;;;;;4185699;28;20537;-84
2023/03/28 03:48:45;;;;;;;4.72;0.80;;;1.80;99.90;;;;;;4188349;28;20041;-84
2023/03/28 03:50:46;;;;;;;5.75;0.95;;;0.50;99.90;;;;;;4192205;28;20033;-84
2023/03/28 03:52:47;;;;;;;8.98;1.75;;;1.50;99.90;;;;;;4196171;28;20062;-84
2023/03/28 03:54:49;;;;;;;5.68;1.42;;;1.30;99.90;;;;;;4204101;28;20049;-84
2023/03/28 03:56:50;;;;;;;3.42;1.20;;;2.30;99.90;;;;;;4205029;28;20040;-84
2023/03/28 03:58:52;;;;;;;9.35;1.23;;;2.80;99.90;;;;;;4182064;28;20127;-84
2023/03/28 04:00:54;;;;;;;11.70;1.50;;;1.40;99.90;;;;;;4197785;28;20374;-84
2023/03/28 04:02:56;;;;;;;7.80;0.88;;;1.50;99.90;;;;;;4186955;28;20049;-84
2023/03/28 04:04:58;;;;;;;8.90;1.05;;;1.40;99.90;;;;;;4204089;28;20048;-84
2023/03/28 04:07:01;;;;;;;7.45;0.90;;;2.40;99.90;;;;;;4175626;28;20072;-84
2023/03/28 04:09:02;;;;;;;8.68;1.33;;;2.10;99.90;;;;;;4196333;28;20048;-84
2023/03/28 04:11:03;;;;;;;11.55;1.35;;;1.40;99.90;;;;;;4203043;28;20044;-84
2023/03/28 04:13:04;;;;;;;8.45;1.30;;;1.40;99.90;;;;;;4186605;28;20056;-84
2023/03/28 04:15:08;;;;;;;6.90;1.40;;;1.30;99.90;;;;;;4197405;28;20052;-84
2023/03/28 04:17:09;;;;;;;6.80;1.30;;;1.40;99.90;;;;;;4190108;28;20556;-85
2023/03/28 04:19:12;;;;;;;8.25;1.30;;;2.80;99.90;;;;;;4185066;28;20060;-84
2023/03/28 04:21:15;;;;;;;10.02;1.08;;;1.30;99.90;;;;;;4181704;28;20079;-84
2023/03/28 04:23:17;;;;;;;5.78;0.95;;;2.30;99.90;;;;;;4190576;28;20525;-84
2023/03/28 04:25:19;;;;;;;9.15;1.33;;;0.60;99.90;;;;;;4199046;28;20535;-84
2023/03/28 04:27:19;;;;;;;9.30;1.63;;;1.30;99.90;;;;;;4186172;28;20056;-84
2023/03/28 04:29:29;;;;;;;6.65;0.63;;;2.40;99.90;;;;;;4185601;28;20052;-84
2023/03/28 04:31:34;;;;;;;10.85;1.95;;;1.30;99.90;;;;;;4185442;28;20509;-84
2023/03/28 04:33:36;;;;;;;7.68;1.10;;;2.40;99.90;;;;;;4202149;28;20056;-84
2023/03/28 04:35:37;;;;;;;9.23;1.00;;;1.50;99.90;;;;;;4170396;28;20060;-84
2023/03/28 04:37:39;;;;;;;6.32;1.10;;;2.50;99.90;;;;;;4203304;28;20405;-84
2023/03/28 04:39:43;;;;;;;10.73;1.00;;;1.50;99.90;;;;;;4169737;28;20084;-84
2023/03/28 04:41:45;;;;;;;8.82;0.93;;;1.30;99.90;;;;;;4186701;28;20041;-84
2023/03/28 04:43:47;;;;;;;7.95;1.38;;;1.30;99.90;;;;;;4185907;28;20105;-84
2023/03/28 04:45:49;;;;;;;9.20;1.20;;;1.30;99.90;;;;;;4200582;28;20053;-84
2023/03/28 04:47:53;;;;;;;7.50;1.40;;;2.50;99.90;;;;;;4201402;28;20131;-84
2023/03/28 04:49:55;;;;;;;6.68;1.00;;;1.80;99.90;;;;;;4204515;28;20056;-84
2023/03/28 04:51:56;;;;;;;9.95;2.20;;;1.10;99.90;;;;;;4189775;28;20489;-85
2023/03/28 04:53:58;;;;;;;4.55;1.15;;;1.20;99.90;;;;;;4202703;28;20189;-84
2023/03/28 04:56:04;;;;;;;10.07;1.25;;;1.80;99.90;;;;;;4203654;28;20051;-84
2023/03/28 04:58:06;;;;;;;9.60;1.60;;;1.30;99.90;;;;;;4201881;28;20088;-84
2023/03/28 05:00:15;;;;;;;5.68;1.40;;;1.80;99.90;;;;;;4195737;28;20532;-84
2023/03/28 05:02:16;;;;;;;12.93;1.40;;;1.20;99.90;;;;;;4203442;28;20083;-84
2023/03/28 05:04:21;;;;;;;7.30;2.08;;;1.80;99.90;;;;;;4198072;28;20402;-84
2023/03/28 05:06:24;;;;;;;7.93;0.85;;;1.20;99.90;;;;;;4175360;28;20040;-84
2023/03/28 05:08:26;;;;;;;7.30;1.80;;;1.70;99.90;;;;;;4204374;28;20041;-83
2023/03/28 05:10:31;;;;;;;8.77;1.63;;;2.60;99.90;;;;;;4179963;28;20512;-84
2023/03/28 05:12:32;;;;;;;11.20;1.40;;;1.30;99.90;;;;;;4199452;28;20400;-83
2023/03/28 05:14:37;;;;;;;8.45;1.38;;;1.40;99.90;;;;;;4219741;28;20123;-84
2023/03/28 05:16:39;;;;;;;6.68;1.42;;;1.50;99.90;;;;;;4243002;27;20063;-84
2023/03/28 05:18:47;;;;;;;12.25;1.45;;;1.20;99.90;;;;;;4206024;28;20565;-84
2023/03/28 05:20:48;;;;;;;11.75;1.92;;;1.50;99.90;;;;;;4239091;27;20399;-84
2023/03/28 05:22:50;;;;;;;12.27;1.60;;;1.80;99.90;;;;;;4219609;28;20051;-84
2023/03/28 05:24:51;;;;;;;9.75;1.05;;;2.40;99.90;;;;;;4226993;28;20109;-84
2023/03/28 05:26:54;;;;;;;12.68;1.20;;;1.30;99.90;;;;;;4203105;28;20044;-83
2023/03/28 05:28:55;;;;;;;10.25;2.25;;;1.30;99.90;;;;;;4229140;28;20126;-84
2023/03/28 05:30:57;;;;;;;9.52;2.03;;;1.20;99.90;;;;;;4219007;28;20056;-84
2023/03/28 05:32:59;;;;;;;9.05;1.27;;;1.70;99.90;;;;;;4218275;28;20131;-84
2023/03/28 05:35:00;;;;;;;12.48;1.38;;;1.30;99.90;;;;;;4247254;27;20051;-84
2023/03/28 05:37:01;;;;;;;7.35;1.00;;;1.50;99.90;;;;;;4225186;28;20054;-84
2023/03/28 05:39:03;;;;;;;10.80;1.90;;;1.40;99.90;;;;;;4248721;27;20487;-84
2023/03/28 05:41:04;;;;;;;10.18;2.58;;;1.30;99.90;;;;;;4216290;28;20073;-85
2023/03/28 05:43:06;;;;;;;8.27;1.67;;;1.50;99.90;;;;;;4214217;28;20075;-84
2023/03/28 05:45:11;;;;;;;9.15;1.58;;;1.50;99.90;;;;;;4213833;28;20055;-84
2023/03/28 05:47:13;;;;;;;14.95;3.13;;;1.60;99.90;;;;;;4203989;28;20045;-83
2023/03/28 05:49:16;;;;;;;9.23;1.67;;;1.90;99.90;;;;;;4240644;27;20545;-84
2023/03/28 05:51:17;;;;;;;8.80;1.67;;;1.70;99.90;;;;;;4214924;28;20052;-84
2023/03/28 05:53:19;;;;;;;9.73;2.85;;;2.90;99.90;;;;;;4239787;27;20126;-84
2023/03/28 05:55:22;;;;;;;10.85;1.58;;;1.70;99.90;;;;;;4222984;28;20073;-84
2023/03/28 05:57:24;;;;;;;9.88;2.20;;;1.70;99.90;;;;;;4207569;28;20127;-85
2023/03/28 05:59:27;;;;;;;11.27;1.50;;;1.70;99.90;;;;;;4200135;28;20524;-84
2023/03/28 06:01:30;;;;;;;8.75;1.95;;;2.60;99.90;;;;;;4241127;27;20039;-84
2023/03/28 06:03:31;;;;;;;9.93;2.20;;;1.80;99.90;;;;;;4232909;28;20040;-83
2023/03/28 06:05:32;;;;;;;13.32;1.80;;;2.10;99.90;;;;;;4237768;28;20063;-84
2023/03/28 06:07:38;;;;;;;5.00;1.77;;;1.90;99.90;;;;;;4233449;28;20176;-85
2023/03/28 06:09:40;;;;;;;10.85;1.20;;;2.10;99.90;;;;;;4218283;28;20047;-84
2023/03/28 06:11:42;;;;;;;5.43;1.42;;;2.50;99.90;;;;;;4241399;27;20048;-84
2023/03/28 06:13:42;;;;;;;14.63;1.58;;;2.20;99.90;;;;;;4200106;28;20177;-84
2023/03/28 06:15:44;;;;;;;7.78;1.52;;;3.30;99.90;;;;;;4209889;28;20131;-85
2023/03/28 06:17:45;;;;;;;10.65;2.65;;;2.30;99.90;;;;;;4223303;28;20082;-85
2023/03/28 06:19:46;;;;;;;4.30;1.35;;;2.70;99.90;;;;;;4201520;28;20041;-84
2023/03/28 06:21:47;;;;;;;8.23;2.17;;;2.40;99.90;;;;;;4251308;27;20096;-84
2023/03/28 06:23:47;;;;;;;7.28;1.95;;;2.50;99.90;;;;;;4201034;28;20051;-84
2023/03/28 06:25:49;;;;;;;9.85;1.60;;;3.00;99.90;;;;;;4251516;28;20492;-84
2023/03/28 06:27:50;;;;;;;10.32;1.67;;;3.50;99.90;;;;;;4217703;28;20052;-84
2023/03/28 06:29:54;;;;;;;8.60;2.53;;;3.10;99.90;;;;;;4235938;28;20078;-84
2023/03/28 06:31:55;;;;;;;10.48;2.38;;;1.90;99.90;;;;;;4252976;27;20102;-84
2023/03/28 06:33:56;;;;;;;7.28;1.35;;;4.20;99.90;;;;;;4205449;28;20048;-84
2023/03/28 06:35:56;;;;;;;9.60;1.80;;;4.20;99.90;;;;;;4197227;28;20044;-84
2023/03/28 06:37:58;;;;;;;13.85;1.98;;;3.90;99.90;;;;;;4206908;28;20090;-84
2023/03/28 06:40:02;;;;;;;9.73;2.25;;;3.80;99.90;;;;;;4255257;27;20118;-85
2023/03/28 06:42:02;;;;;;;8.35;1.38;;;3.00;99.90;;;;;;4234246;28;20101;-84
2023/03/28 06:44:04;;;;;;;10.75;2.10;;;3.00;99.90;;;;;;4240786;27;20047;-84
2023/03/28 06:46:05;;;;;;;11.10;1.33;;;3.10;99.90;;;;;;4209469;28;20036;-84
2023/03/28 06:48:06;;;;;;;18.55;2.25;;;3.10;99.90;;;;;;4220736;28;20499;-84
2023/03/28 06:50:07;;;;;;;13.05;1.50;;;3.30;99.90;;;;;;4206239;28;20048;-85
2023/03/28 06:52:08;;;;;;;9.00;1.67;;;3.20;99.90;;;;;;4226592;28;20066;-84
2023/03/28 06:54:10;;;;;;;10.93;1.30;;;3.20;99.90;;;;;;4237904;28;20051;-84
2023/03/28 06:56:11;;;;;;;11.60;1.73;;;3.00;99.90;;;;;;4223846;28;20081;-84
2023/03/28 06:58:12;;;;;;;16.02;1.48;;;4.30;99.90;;;;;;4205551;28;20131;-85
2023/03/28 07:00:13;;;;;;;11.13;1.42;;;3.20;99.90;;;;;;4234000;27;20493;-84
2023/03/28 07:02:14;;;;;;;8.73;1.83;;;3.20;99.90;;;;;;4232327;28;20048;-85
2023/03/28 07:04:16;;;;;;;9.98;1.55;;;3.20;99.90;;;;;;4223579;28;20043;-85
2023/03/28 07:06:17;;;;;;;9.95;2.10;;;;;;;;;;4231121;28;20488;-85
2023/03/28 07:08:20;;;;;;;5.50;1.33;;;4.40;99.90;;;;;;4224237;28;20134;-85
2023/03/28 07:10:21;;;;;;;5.22;1.10;;;3.30;99.90;;;;;;4230197;28;20040;-84
2023/03/28 07:12:22;;;;;;;14.68;2.28;;;4.50;99.90;;;;;;4206464;28;20121;-84
2023/03/28 07:14:24;;;;;;;10.93;1.65;;;3.50;99.90;;;;;;4203355;28;20040;-84
2023/03/28 07:16:25;;;;;;;7.70;1.38;;;3.60;99.90;;;;;;4204400;28;20285;-85
2023/03/28 07:18:31;;;;;;;6.70;1.35;;;3.70;99.90;;;;;;4230136;28;20036;-85
2023/03/28 07:20:31;;;;;;;8.55;1.70;;;3.90;99.90;;;;;;4203723;28;20049;-85
2023/03/28 07:22:33;;;;;;;12.85;1.60;;;3.90;99.90;;;;;;4191496;28;20090;-85
2023/03/28 07:24:34;;;;;;;6.20;1.88;;;5.00;99.90;;;;;;4218196;28;20123;-84
2023/03/28 07:26:36;;;;;;;5.65;1.50;;;3.40;99.90;;;;;;4229560;28;20396;-85
2023/03/28 07:28:37;;;;;;;13.25;1.73;;;4.40;99.90;;;;;;4208385;28;20050;-85
2023/03/28 07:30:45;;;;;;;7.50;1.38;;;4.20;99.90;;;;;;4227865;28;20044;-85
2023/03/28 07:32:47;;;;;;;7.88;1.23;;;4.70;99.90;;;;;;4218610;28;20479;-86
2023/03/28 07:34:51;;;;;;;5.78;1.23;;;4.80;99.90;;;;;;4227303;28;20039;-85
2023/03/28 07:36:52;;;;;;;4.85;1.17;;;5.00;99.90;;;;;;4207901;28;20131;-85
2023/03/28 07:38:54;;;;;;;6.82;1.08;;;5.20;99.90;;;;;;4210701;28;20096;-84
2023/03/28 07:40:59;;;;;;;5.40;1.10;;;5.40;99.90;;;;;;4216727;28;20051;-85
2023/03/28 07:43:01;;;;;;;7.03;1.35;;;5.50;99.90;;;;;;4205952;28;20459;-85
2023/03/28 07:45:03;;;;;;;8.30;1.67;;;5.60;99.90;;;;;;4205297;28;20052;-84
2023/03/28 07:47:04;;;;;;;7.10;1.75;;;5.70;99.90;;;;;;4206836;28;20048;-84
2023/03/28 07:49:07;;;;;;;10.88;1.13;;;6.00;99.90;;;;;;4223678;28;20071;-85
2023/03/28 07:51:09;;;;;;;3.35;1.58;;;6.00;99.90;;;;;;4227106;28;20051;-85
2023/03/28 07:53:10;;;;;;;9.23;1.42;;;6.20;99.90;;;;;;4204819;28;20126;-84
2023/03/28 07:55:12;;;;;;;4.72;0.93;;;6.40;99.90;;;;;;4212801;28;20080;-85
2023/03/28 07:57:13;;;;;;;8.60;1.55;;;6.40;99.90;;;;;;4205176;28;20047;-85
2023/03/28 07:59:16;;;;;;;8.02;1.08;;;6.60;99.90;;;;;;4212254;28;20076;-85
2023/03/28 08:01:18;;;;;;;4.45;0.80;;;6.80;99.90;;;;;;4231333;28;20547;-85
2023/03/28 08:03:22;;;;;;;6.50;0.90;;;;;;;;;;4220706;28;20044;-85
2023/03/28 08:05:23;;;;;;;6.10;1.38;;;6.80;99.90;;;;;;4230848;28;20092;-85
2023/03/28 08:07:25;;;;;;;9.18;1.13;;;6.50;99.90;;;;;;4221232;28;20098;-85
2023/03/28 08:09:27;;;;;;;9.40;1.02;;;;;;;;;;4214472;28;20054;-85
2023/03/28 08:11:28;;;;;;;6.95;1.33;;;7.20;99.90;;;;;;4197714;28;20041;-85
2023/03/28 08:13:29;;;;;;;2.45;0.88;;;7.70;99.90;;;;;;4214740;28;20083;-85
2023/03/28 08:15:29;;;;;;;7.50;1.00;;;8.00;99.90;;;;;;4211272;28;20044;-85
2023/03/28 08:17:31;;;;;;;7.05;1.33;;;8.30;99.90;;;;;;4215037;28;20063;-85
2023/03/28 08:19:32;;;;;;;10.57;1.20;;;;;;;;;;4195710;28;20123;-86
2023/03/28 08:21:34;;;;;;;3.92;0.90;;;8.80;99.80;;;;;;4198331;28;20105;-85
2023/03/28 08:23:35;;;;;;;10.25;0.88;;;9.70;97.40;;;;;;4212391;28;20044;-85
2023/03/28 08:25:36;;;;;;;3.10;1.15;;;10.20;96.70;;;;;;4213162;28;20036;-85
2023/03/28 08:27:37;;;;;;;3.17;0.80;;;10.50;95.70;;;;;;4211825;28;20058;-85
2023/03/28 08:29:41;;;;;;;7.93;1.10;;;10.70;94.80;;;;;;4198331;28;20040;-85
2023/03/28 08:31:42;;;;;;;7.30;0.77;;;;;;;;;;4194000;28;20420;-85
2023/03/28 08:33:44;;;;;;;3.17;0.73;;;11.20;94.40;;;;;;4200648;28;20036;-85
2023/03/28 08:35:45;;;;;;;4.05;0.65;;;11.00;93.10;;;;;;4201974;28;20145;-85
2023/03/28 08:37:47;;;;;;;7.03;0.82;;;10.90;93.30;;;;;;4197900;28;20040;-85
2023/03/28 08:39:48;;;;;;;3.80;0.77;;;10.60;93.60;;;;;;4187145;28;20084;-85
2023/03/28 08:42:19;;;;;;;5.97;1.50;;;10.30;92.70;;;;;;4191795;28;20037;-86
2023/03/28 08:44:38;;;;;;;4.75;0.70;;;9.70;92.90;;;;;;4187101;28;20404;-86
2023/03/28 08:46:41;;;;;;;5.35;1.98;;;9.20;93.30;;;;;;4214736;28;20071;-86
2023/03/28 08:48:47;;;;;;;4.18;0.68;;;8.60;92.60;;;;;;4193784;28;20037;-84
2023/03/28 08:51:10;;;;;;;2.70;0.60;;;8.20;92.90;;;;;;4199455;28;20044;-86
2023/03/28 08:53:33;;;;;;;2.65;0.60;;;7.80;89.40;;;;;;4202447;28;20396;-85
2023/03/28 08:55:40;;;;;;;7.13;1.83;;;7.50;91.00;;;;;;4215490;28;20105;-87
2023/03/28 08:57:43;;;;;;;1.90;0.40;;;7.40;91.20;;;;;;4218575;28;20054;-86
2023/03/28 08:59:44;;;;;;;6.32;0.68;;;7.40;92.60;;;;;;4212438;28;20101;-86
2023/03/28 09:01:46;;;;;;;4.43;0.88;;;7.40;92.00;;;;;;4212465;28;20052;-86
2023/03/28 09:03:49;;;;;;;7.25;0.70;;;7.40;92.20;;;;;;4200159;28;20048;-85
2023/03/28 09:06:00;;;;;;;2.15;0.30;;;7.30;91.30;;;;;;4198499;28;20055;-86
2023/03/28 09:08:31;;;;;;;3.05;0.52;;;7.50;91.10;;;;;;4201533;28;20115;-87
2023/03/28 09:11:13;;;;;;;1.85;0.70;;;7.80;91.20;;;;;;4202864;28;20052;-84
2023/03/28 09:13:19;;;;;;;5.25;0.85;;;8.10;89.40;;;;;;4188248;28;20094;-86
2023/03/28 09:15:40;;;;;;;3.08;0.65;;;8.20;91.00;;;;;;4198511;28;20119;-86
2023/03/28 09:18:05;;;;;;;2.78;0.57;;;8.20;89.80;;;;;;4180088;28;20052;-85
2023/03/28 09:20:16;;;;;;;3.92;0.55;;;8.10;90.10;;;;;;4173431;28;20055;-85
2023/03/28 09:22:36;;;;;;;4.90;0.80;;;8.30;90.60;;;;;;4192877;28;20045;-85
2023/03/28 09:25:07;;;;;;;1.05;0.55;;;8.40;89.60;;;;;;4191836;28;20049;-85
2023/03/28 09:27:17;;;;;;;5.72;0.93;;;8.40;90.30;;;;;;4199253;28;20052;-85
2023/03/28 09:29:23;;;;;;;0.90;0.40;;;8.40;89.70;;;;;;4193047;28;20045;-85
2023/03/28 09:31:31;;;;;;;1.33;0.47;;;8.40;89.10;;;;;;4189642;28;20191;-86
2023/03/28 09:33:37;;;;;;;7.95;2.03;;;8.70;89.40;;;;;;4200367;28;20049;-86
2023/03/28 09:35:39;;;;;;;2.08;0.55;;;8.90;87.90;;;;;;4185277;28;20060;-87
2023/03/28 09:37:43;;;;;;;6.47;0.60;;;9.30;87.20;;;;;;4199038;28;20052;-86
2023/03/28 09:39:53;;;;;;;2.03;0.70;;;9.40;86.40;;;;;;4191365;28;20060;-86
2023/03/28 09:42:13;;;;;;;3.45;0.68;;;9.90;84.50;;;;;;4202140;28;20428;-86
2023/03/28 09:44:17;;;;;;;2.97;0.40;;;10.30;82.00;;;;;;4193219;28;20048;-86
2023/03/28 09:46:39;;;;;;;7.43;1.50;;;;;;;;;;4194538;28;20048;-86
2023/03/28 09:48:41;;;;;;;7.72;1.00;;;10.70;83.00;;;;;;4187236;28;20484;-86
2023/03/28 09:50:42;;;;;;;4.95;1.58;;;10.20;82.10;;;;;;4184424;28;20497;-86
2023/03/28 09:52:44;;;;;;;5.03;0.50;;;10.20;82.10;;;;;;4177410;28;20128;-86
2023/03/28 09:54:45;;;;;;;3.22;0.93;;;10.00;81.00;;;;;;4188834;28;20492;-86
2023/03/28 09:56:48;;;;;;;4.80;0.90;;;9.60;81.00;;;;;;4193863;28;20045;-86
2023/03/28 09:58:55;;;;;;;3.72;0.73;;;9.40;81.60;;;;;;4196178;28;20048;-86
2023/03/28 10:00:56;;;;;;;4.13;0.80;;;9.30;81.00;;;;;;4182291;28;20567;-85
2023/03/28 10:02:57;;;;;;;2.42;0.50;;;8.80;82.00;;;;;;4185639;28;20048;-86
2023/03/28 10:04:57;;;;;;;3.28;0.80;;;9.10;82.10;;;;;;4172500;28;20136;-85
2023/03/28 10:07:10;;;;;;;4.20;1.02;;;9.30;82.30;;;;;;4188854;28;20047;-83
2023/03/28 10:09:23;;;;;;;1.88;0.82;;;9.50;80.10;;;;;;4192045;28;20033;-85
2023/03/28 10:11:23;;;;;;;5.22;1.20;;;9.50;78.70;;;;;;4175891;28;20059;-86
2023/03/28 10:13:25;;;;;;;4.28;0.95;;;9.60;80.10;;;;;;4185981;28;20520;-86
2023/03/28 10:15:44;;;;;;;3.67;0.80;;;9.60;79.60;;;;;;4212563;28;20052;-85
2023/03/28 10:17:44;;;;;;;4.80;0.60;;;9.60;79.10;;;;;;4216811;28;20032;-85
2023/03/28 10:19:46;;;;;;;5.30;0.57;;;9.60;79.10;;;;;;4185602;28;20110;-85
2023/03/28 10:21:48;;;;;;;2.50;0.60;;;9.50;78.10;;;;;;4210901;28;20046;-85
2023/03/28 10:23:57;;;;;;;3.78;1.25;;;9.50;77.30;;;;;;4209306;28;20120;-85
2023/03/28 10:26:00;;;;;;;;;;;9.60;76.70;;;;;;4209654;28;20079;-85
2023/03/28 10:28:03;;;;;;;2.60;0.65;;;9.70;72.90;;;;;;4212660;28;19926;-85
2023/03/28 10:30:13;;;;;;;3.95;0.63;;;9.80;77.70;;;;;;4196644;28;20044;-85
2023/03/28 10:32:24;;;;;;;7.47;0.60;;;9.80;75.50;;;;;;4196801;28;20440;-85
2023/03/28 10:34:33;;;;;;;2.88;0.68;;;9.70;76.20;;;;;;4213907;28;20051;-85
2023/03/28 10:36:42;;;;;;;3.88;1.13;;;9.60;76.30;;;;;;4206311;28;20032;-84
2023/03/28 10:38:46;;;;;;;2.13;0.50;;;9.50;76.20;;;;;;4193207;28;20123;-85
2023/03/28 10:40:59;;;;;;;7.85;1.65;;;9.30;76.10;;;;;;4200665;28;20132;-84
2023/03/28 10:42:59;;;;;;;3.95;0.77;;;9.20;76.30;;;;;;4191356;28;20048;-84
2023/03/28 10:45:01;;;;;;;3.42;1.20;;;9.00;77.50;;;;;;4213981;28;20090;-84
2023/03/28 10:47:06;;;;;;;4.03;0.70;;;8.90;77.00;;;;;;4199394;28;20110;-84
2023/03/28 10:49:19;;;;;;;3.85;0.70;;;8.80;77.00;;;;;;4191627;28;20110;-84
2023/03/28 10:51:22;;;;;;;2.08;0.80;;;8.70;77.10;;;;;;4195591;28;20202;-84
2023/03/28 10:53:43;;;;;;;4.60;0.77;;;8.70;77.60;;;;;;4212211;28;20135;-84
2023/03/28 10:56:02;;;;;;;9.70;2.03;;;8.90;77.80;;;;;;4184164;28;20048;-84
2023/03/28 10:58:25;;;;;;;1.63;0.50;;;9.20;75.90;;;;;;4208790;28;20048;-84
2023/03/28 11:00:42;;;;;;;4.03;0.73;;;9.30;74.00;;;;;;4200543;28;20044;-84
2023/03/28 11:03:39;;;;;;;4.85;0.85;;;9.40;74.10;;;;;;4196842;28;20048;-84